createdAt,value
2023-03-07T00:01:09.178Z,73.30
2023-03-07T00:03:36.896Z,73.30
2023-03-07T00:06:10.009Z,73.50
2023-03-07T00:08:37.666Z,73.40
2023-03-07T00:11:08.037Z,73.40
2023-03-07T00:13:38.393Z,73.60
2023-03-07T00:16:10.727Z,73.70
2023-03-07T00:18:37.677Z,73.80
2023-03-07T00:21:08.076Z,73.00
2023-03-07T00:23:38.015Z,74.20
2023-03-07T00:26:11.862Z,73.40
2023-03-07T00:28:38.662Z,73.60
2023-03-07T00:31:11.166Z,73.40
2023-03-07T00:33:39.278Z,73.70
2023-03-07T00:36:15.367Z,73.80
2023-03-07T00:38:42.448Z,73.80
2023-03-07T00:41:19.043Z,73.90
2023-03-07T00:43:47.187Z,73.70
2023-03-07T00:46:16.099Z,74.20
2023-03-07T00:48:43.808Z,73.50
2023-03-07T00:51:15.454Z,73.30
2023-03-07T00:53:43.209Z,73.60
2023-03-07T00:56:21.165Z,73.50
2023-03-07T00:58:48.954Z,73.90
2023-03-07T01:01:20.925Z,73.50
2023-03-07T01:03:53.653Z,73.50
2023-03-07T01:06:25.172Z,73.50
2023-03-07T01:08:52.632Z,73.50
2023-03-07T01:11:19.699Z,73.50
2023-03-07T01:13:46.671Z,73.40
2023-03-07T01:16:22.842Z,73.50
2023-03-07T01:18:53.990Z,74.00
2023-03-07T01:21:26.673Z,73.90
2023-03-07T01:23:53.832Z,74.00
2023-03-07T01:26:30.369Z,73.80
2023-03-07T01:29:01.547Z,73.80
2023-03-07T01:31:30.238Z,74.00
2023-03-07T01:33:57.310Z,73.90
2023-03-07T01:36:30.515Z,74.40
2023-03-07T01:39:02.810Z,74.30
2023-03-07T01:41:32.342Z,74.30
2023-03-07T01:44:02.512Z,74.30
2023-03-07T01:46:53.233Z,74.20
2023-03-07T01:49:37.542Z,75.10
2023-03-07T01:52:28.280Z,74.50
2023-03-07T01:55:10.309Z,74.90
2023-03-07T01:57:40.377Z,74.10
2023-03-07T02:00:13.934Z,74.30
2023-03-07T02:02:49.536Z,74.80
2023-03-07T02:05:25.830Z,75.10
2023-03-07T02:07:54.915Z,75.40
2023-03-07T02:10:24.284Z,75.40
2023-03-07T02:12:53.770Z,75.30
2023-03-07T02:15:21.357Z,75.50
2023-03-07T02:17:48.330Z,75.60
2023-03-07T02:20:31.643Z,75.80
2023-03-07T02:22:58.394Z,76.00
2023-03-07T02:25:43.609Z,74.90
2023-03-07T02:28:14.502Z,77.00
2023-03-07T02:30:58.460Z,76.20
2023-03-07T02:33:25.414Z,76.80
2023-03-07T02:38:26.793Z,75.80
2023-03-07T02:40:56.954Z,76.10
2023-03-07T02:43:24.293Z,76.50
2023-03-07T02:45:51.328Z,75.90
2023-03-07T02:48:18.867Z,76.20
2023-03-07T02:50:45.637Z,76.20
2023-03-07T02:53:12.401Z,76.30
2023-03-07T02:55:40.074Z,76.40
2023-03-07T02:58:07.069Z,75.80
2023-03-07T03:00:34.177Z,76.20
2023-03-07T03:03:01.246Z,76.30
2023-03-07T03:05:27.995Z,76.30
2023-03-07T03:07:55.093Z,76.30
2023-03-07T03:10:21.862Z,76.50
2023-03-07T03:12:48.628Z,76.60
2023-03-07T03:15:15.432Z,76.90
2023-03-07T03:17:42.713Z,76.30
2023-03-07T03:20:11.929Z,76.00
2023-03-07T03:22:42.496Z,76.30
2023-03-07T03:25:14.451Z,76.60
2023-03-07T03:27:41.951Z,76.60
2023-03-07T03:30:12.241Z,76.40
2023-03-07T03:32:40.130Z,76.40
2023-03-07T03:35:08.075Z,76.90
2023-03-07T03:37:35.239Z,76.30
2023-03-07T03:40:02.246Z,76.10
2023-03-07T03:42:29.024Z,76.30
2023-03-07T03:44:55.763Z,76.30
2023-03-07T03:47:22.534Z,76.10
2023-03-07T03:49:49.400Z,76.00
2023-03-07T03:52:16.122Z,75.60
2023-03-07T03:54:42.897Z,75.90
2023-03-07T03:57:10.724Z,76.00
2023-03-07T03:59:37.461Z,76.20
2023-03-07T04:02:04.352Z,76.20
2023-03-07T04:04:31.132Z,75.70
2023-03-07T04:06:57.914Z,77.40
2023-03-07T04:09:24.678Z,76.40
2023-03-07T04:11:51.402Z,76.10
2023-03-07T04:14:18.151Z,76.00
2023-03-07T04:16:44.990Z,76.10
2023-03-07T04:19:13.044Z,76.10
2023-03-07T04:21:40.963Z,76.10
2023-03-07T04:24:08.705Z,76.20
2023-03-07T04:26:36.282Z,76.10
2023-03-07T04:29:04.521Z,76.00
2023-03-07T04:31:32.797Z,76.10
2023-03-07T04:33:59.629Z,76.00
2023-03-07T04:36:26.491Z,76.00
2023-03-07T04:38:53.319Z,76.10
2023-03-07T04:41:26.103Z,75.80
2023-03-07T04:46:21.095Z,75.20
2023-03-07T04:48:47.854Z,76.00
2023-03-07T04:51:15.220Z,75.90
2023-03-07T04:53:42.248Z,75.90
2023-03-07T04:56:10.098Z,75.90
2023-03-07T04:58:37.804Z,75.70
2023-03-07T05:01:05.383Z,75.70
2023-03-07T05:03:33.391Z,75.70
2023-03-07T05:06:12.720Z,76.50
2023-03-07T05:08:39.543Z,76.00
2023-03-07T05:11:06.348Z,75.70
2023-03-07T05:13:33.375Z,75.30
2023-03-07T05:16:01.055Z,76.20
2023-03-07T05:18:28.836Z,76.00
2023-03-07T05:20:56.043Z,75.90
2023-03-07T05:23:23.809Z,75.10
2023-03-07T05:25:51.481Z,75.90
2023-03-07T05:28:19.033Z,75.60
2023-03-07T05:30:46.914Z,76.70
2023-03-07T05:33:15.094Z,75.80
2023-03-07T05:38:10.039Z,75.70
2023-03-07T05:40:36.997Z,76.20
2023-03-07T05:43:04.069Z,76.30
2023-03-07T05:45:30.802Z,76.40
2023-03-07T05:47:57.543Z,76.30
2023-03-07T05:50:24.298Z,77.20
2023-03-07T05:52:52.954Z,76.60
2023-03-07T05:55:19.793Z,76.70
2023-03-07T05:57:46.610Z,77.20
2023-03-07T06:00:14.449Z,76.70
2023-03-07T06:02:42.355Z,77.10
2023-03-07T06:05:09.552Z,76.60
2023-03-07T06:07:36.257Z,77.30
2023-03-07T06:10:04.260Z,76.90
2023-03-07T06:12:31.035Z,77.40
2023-03-07T06:14:57.741Z,76.90
2023-03-07T06:17:24.476Z,76.90
2023-03-07T06:19:51.263Z,76.90
2023-03-07T06:22:17.993Z,77.10
2023-03-07T06:24:44.746Z,77.10
2023-03-07T06:27:11.479Z,77.20
2023-03-07T06:29:38.224Z,77.30
2023-03-07T06:32:05.570Z,77.40
2023-03-07T06:34:32.322Z,79.10
2023-03-07T06:36:59.862Z,77.40
2023-03-07T06:39:27.459Z,77.40
2023-03-07T06:41:55.080Z,77.40
2023-03-07T06:44:21.805Z,77.40
2023-03-07T06:46:48.923Z,77.40
2023-03-07T06:49:15.693Z,77.20
2023-03-07T06:51:42.413Z,77.50
2023-03-07T06:54:09.155Z,78.00
2023-03-07T06:56:35.957Z,77.80
2023-03-07T06:59:02.816Z,78.90
2023-03-07T07:01:30.014Z,77.70
2023-03-07T07:03:57.531Z,77.40
2023-03-07T07:06:24.364Z,77.30
2023-03-07T07:08:55.621Z,77.50
2023-03-07T07:11:23.758Z,77.50
2023-03-07T07:13:50.728Z,77.30
2023-03-07T07:16:18.890Z,77.40
2023-03-07T07:18:46.356Z,77.50
2023-03-07T07:21:13.138Z,77.70
2023-03-07T07:23:40.068Z,77.20
2023-03-07T07:26:06.986Z,77.30
2023-03-07T07:28:33.720Z,77.50
2023-03-07T07:31:00.621Z,77.60
2023-03-07T07:33:27.709Z,77.70
2023-03-07T07:35:54.578Z,76.90
2023-03-07T07:38:21.654Z,77.40
2023-03-07T07:40:48.733Z,77.20
2023-03-07T07:43:17.532Z,77.40
2023-03-07T07:45:44.337Z,77.50
2023-03-07T07:48:11.312Z,77.30
2023-03-07T07:50:38.491Z,77.40
2023-03-07T07:53:05.277Z,77.50
2023-03-07T07:55:32.457Z,77.20
2023-03-07T07:57:59.291Z,77.00
2023-03-07T08:00:26.374Z,76.70
2023-03-07T08:02:53.128Z,76.10
2023-03-07T08:05:21.715Z,76.50
2023-03-07T08:07:49.609Z,76.30
2023-03-07T08:10:17.703Z,75.90
2023-03-07T08:12:48.289Z,75.70
2023-03-07T08:15:17.064Z,75.70
2023-03-07T08:17:44.353Z,75.70
2023-03-07T08:20:11.634Z,75.70
2023-03-07T08:22:39.219Z,75.80
2023-03-07T08:25:18.029Z,75.90
2023-03-07T08:27:44.960Z,75.90
2023-03-07T08:30:13.240Z,75.50
2023-03-07T08:32:40.047Z,76.00
2023-03-07T08:35:07.640Z,74.80
2023-03-07T08:37:35.320Z,74.60
2023-03-07T08:40:02.762Z,75.30
2023-03-07T08:42:30.142Z,75.40
2023-03-07T08:44:57.004Z,74.60
2023-03-07T08:47:24.334Z,75.70
2023-03-07T08:49:51.142Z,75.70
2023-03-07T08:52:17.964Z,75.90
2023-03-07T08:54:45.325Z,75.80
2023-03-07T08:57:12.132Z,75.70
2023-03-07T08:59:38.884Z,75.70
2023-03-07T09:02:05.747Z,75.90
2023-03-07T09:04:32.541Z,75.10
2023-03-07T09:07:01.532Z,75.60
2023-03-07T09:09:30.363Z,75.90
2023-03-07T09:11:57.891Z,76.00
2023-03-07T09:14:24.794Z,76.00
2023-03-07T09:16:51.604Z,76.00
2023-03-07T09:19:18.323Z,75.90
2023-03-07T09:21:45.037Z,75.50
2023-03-07T09:24:11.812Z,75.50
2023-03-07T09:26:38.608Z,75.30
2023-03-07T09:29:05.375Z,74.50
2023-03-07T09:31:32.199Z,74.90
2023-03-07T09:36:26.331Z,73.60
2023-03-07T09:38:53.079Z,74.10
2023-03-07T09:41:46.967Z,74.00
2023-03-07T09:44:41.617Z,74.10
2023-03-07T09:47:31.509Z,73.60
2023-03-07T09:50:02.230Z,74.20
2023-03-07T09:52:34.626Z,73.90
2023-03-07T09:55:13.245Z,73.70
2023-03-07T09:57:55.337Z,73.80
2023-03-07T10:00:30.746Z,73.70
2023-03-07T10:03:22.091Z,73.80
2023-03-07T10:05:55.447Z,73.90
2023-03-07T10:08:31.736Z,74.00
2023-03-07T10:11:40.446Z,73.70
2023-03-07T10:15:00.801Z,73.00
2023-03-07T10:17:43.873Z,73.20
2023-03-07T10:20:22.982Z,73.00
2023-03-07T10:23:22.118Z,72.80
2023-03-07T10:26:10.708Z,71.30
2023-03-07T10:28:42.859Z,71.20
2023-03-07T10:31:32.068Z,71.90
2023-03-07T10:36:46.941Z,71.20
2023-03-07T10:39:36.120Z,71.40
2023-03-07T10:42:02.870Z,71.20
2023-03-07T10:44:34.211Z,71.20
2023-03-07T10:47:01.198Z,71.00
2023-03-07T10:49:50.388Z,70.00
2023-03-07T10:52:43.926Z,69.30
2023-03-07T10:55:36.943Z,68.60
2023-03-07T10:58:28.866Z,68.50
2023-03-07T11:01:06.844Z,68.70
2023-03-07T11:03:52.727Z,69.10
2023-03-07T11:06:41.819Z,68.60
2023-03-07T11:09:19.353Z,68.60
2023-03-07T11:12:04.722Z,68.90
2023-03-07T11:15:00.015Z,69.30
2023-03-07T11:17:48.542Z,69.40
2023-03-07T11:20:29.195Z,69.70
2023-03-07T11:23:26.063Z,69.80
2023-03-07T11:25:55.848Z,70.10
2023-03-07T11:28:33.497Z,70.20
2023-03-07T11:31:39.864Z,70.10
2023-03-07T11:34:34.706Z,69.60
2023-03-07T11:37:34.302Z,69.30
2023-03-07T11:40:22.969Z,69.30
2023-03-07T11:43:21.663Z,69.00
2023-03-07T11:46:09.566Z,69.10
2023-03-07T11:49:11.090Z,69.10
2023-03-07T11:52:14.291Z,68.90
2023-03-07T11:55:16.238Z,69.20
2023-03-07T11:58:15.800Z,69.30
2023-03-07T12:01:09.845Z,69.30
2023-03-07T12:04:28.357Z,69.40
2023-03-07T12:07:04.699Z,69.00
2023-03-07T12:10:03.489Z,69.20
2023-03-07T12:13:15.946Z,69.00
2023-03-07T12:16:00.817Z,67.70
2023-03-07T12:18:58.414Z,68.80
2023-03-07T12:22:03.249Z,68.90
2023-03-07T12:24:42.485Z,68.90
2023-03-07T12:27:19.691Z,68.50
2023-03-07T12:30:01.842Z,68.60
2023-03-07T12:32:33.450Z,68.70
2023-03-07T12:35:26.677Z,68.10
2023-03-07T12:38:12.861Z,69.00
2023-03-07T12:40:47.356Z,69.10
2023-03-07T12:43:27.292Z,69.40
2023-03-07T12:46:12.162Z,69.60
2023-03-07T12:48:58.919Z,69.70
2023-03-07T12:51:35.327Z,69.70
2023-03-07T12:54:26.530Z,69.80
2023-03-07T12:57:07.817Z,69.90
2023-03-07T12:59:40.080Z,70.00
2023-03-07T13:02:27.257Z,69.70
2023-03-07T13:04:54.679Z,70.50
2023-03-07T13:07:29.408Z,70.30
2023-03-07T13:10:05.938Z,70.70
2023-03-07T13:12:38.062Z,71.60
2023-03-07T13:15:21.132Z,71.20
2023-03-07T13:17:48.136Z,71.60
2023-03-07T13:20:43.368Z,71.50
2023-03-07T13:23:28.157Z,72.20
2023-03-07T13:26:07.657Z,72.40
2023-03-07T13:28:39.302Z,72.10
2023-03-07T13:31:20.991Z,71.70
2023-03-07T13:33:50.640Z,71.90
2023-03-07T13:36:37.833Z,72.20
2023-03-07T13:39:38.473Z,72.90
2023-03-07T13:42:43.602Z,73.10
2023-03-07T13:45:39.217Z,72.70
2023-03-07T13:48:15.537Z,73.00
2023-03-07T13:50:42.174Z,72.70
2023-03-07T13:53:18.692Z,72.40
2023-03-07T13:56:01.203Z,72.80
2023-03-07T13:58:33.641Z,72.80
2023-03-07T14:01:04.056Z,72.80
2023-03-07T14:03:38.796Z,72.80
2023-03-07T14:06:17.410Z,72.90
2023-03-07T14:08:47.361Z,73.20
2023-03-07T14:11:40.951Z,72.90
2023-03-07T14:14:47.398Z,73.10
2023-03-07T14:17:47.109Z,73.00
2023-03-07T14:20:24.036Z,73.00
2023-03-07T14:23:48.371Z,72.80
2023-03-07T14:26:41.927Z,73.60
2023-03-07T14:29:23.693Z,73.20
2023-03-07T14:31:59.431Z,73.40
2023-03-07T14:34:32.389Z,73.20
2023-03-07T14:37:28.066Z,73.30
2023-03-07T14:40:04.106Z,73.30
2023-03-07T14:43:16.054Z,72.70
2023-03-07T14:46:11.083Z,73.40
2023-03-07T14:49:00.430Z,73.40
2023-03-07T14:51:30.420Z,73.10
2023-03-07T14:54:17.681Z,73.10
2023-03-07T14:56:45.074Z,73.00
2023-03-07T14:59:25.944Z,72.80
2023-03-07T15:01:55.397Z,72.90
2023-03-07T15:04:33.148Z,72.80
2023-03-07T15:07:04.675Z,72.80
2023-03-07T15:09:33.714Z,72.80
2023-03-07T15:12:18.598Z,72.70
2023-03-07T15:15:04.156Z,72.60
2023-03-07T15:17:43.789Z,71.90
2023-03-07T15:20:22.357Z,72.60
2023-03-07T15:22:49.404Z,72.50
2023-03-07T15:25:24.474Z,72.40
2023-03-07T15:28:17.600Z,72.50
2023-03-07T15:30:53.222Z,72.30
2023-03-07T15:33:20.360Z,72.20
2023-03-07T15:36:12.195Z,72.00
2023-03-07T15:38:50.302Z,72.20
2023-03-07T15:41:31.713Z,72.10
2023-03-07T15:44:18.232Z,72.30
2023-03-07T15:46:53.011Z,72.60
2023-03-07T15:49:41.330Z,72.50
2023-03-07T15:52:28.292Z,72.60
2023-03-07T15:54:58.314Z,71.70
2023-03-07T15:57:38.322Z,72.40
2023-03-07T16:00:19.041Z,72.30
2023-03-07T16:02:50.598Z,72.60
2023-03-07T16:05:23.177Z,72.60
2023-03-07T16:07:56.778Z,72.60
2023-03-07T16:10:31.632Z,72.80
2023-03-07T16:13:00.823Z,72.90
2023-03-07T16:15:27.846Z,72.70
2023-03-07T16:17:56.512Z,72.50
2023-03-07T16:20:27.889Z,72.30
2023-03-07T16:22:55.738Z,72.50
2023-03-07T16:25:25.202Z,72.50
2023-03-07T16:27:56.595Z,72.40
2023-03-07T16:30:27.720Z,72.70
2023-03-07T16:32:55.650Z,72.70
2023-03-07T16:35:28.424Z,72.40
2023-03-07T16:37:56.067Z,72.80
2023-03-07T16:40:23.633Z,72.70
2023-03-07T16:42:50.758Z,72.70
2023-03-07T16:45:22.394Z,72.80
2023-03-07T16:47:52.984Z,72.50
2023-03-07T16:50:25.503Z,72.90
2023-03-07T16:52:52.570Z,73.00
2023-03-07T16:55:20.090Z,72.70
2023-03-07T16:57:51.232Z,73.00
2023-03-07T17:00:28.455Z,75.00
2023-03-07T17:03:00.390Z,72.90
2023-03-07T17:05:29.991Z,73.10
2023-03-07T17:07:58.852Z,73.10
2023-03-07T17:10:27.156Z,73.10
2023-03-07T17:12:57.462Z,72.80
2023-03-07T17:15:30.396Z,72.80
2023-03-07T17:17:59.348Z,72.80
2023-03-07T17:20:27.101Z,72.90
2023-03-07T17:22:53.910Z,73.60
2023-03-07T17:25:22.557Z,73.70
2023-03-07T17:28:00.003Z,72.40
2023-03-07T17:30:30.002Z,73.10
2023-03-07T17:32:57.168Z,72.90
2023-03-07T17:35:25.076Z,73.00
2023-03-07T17:37:53.045Z,73.00
2023-03-07T17:40:21.581Z,73.20
2023-03-07T17:42:52.002Z,73.30
2023-03-07T17:45:19.274Z,73.40
2023-03-07T17:47:51.465Z,73.20
2023-03-07T17:50:23.551Z,72.70
2023-03-07T17:52:55.365Z,73.30
2023-03-07T17:55:26.434Z,73.40
2023-03-07T17:57:53.481Z,73.10
2023-03-07T18:00:21.236Z,73.10
2023-03-07T18:02:48.277Z,73.10
2023-03-07T18:05:15.120Z,73.20
2023-03-07T18:07:41.996Z,73.20
2023-03-07T18:10:10.292Z,73.10
2023-03-07T18:12:39.174Z,73.20
2023-03-07T18:15:16.000Z,73.20
2023-03-07T18:17:48.316Z,73.40
2023-03-07T18:20:18.878Z,73.00
2023-03-07T18:22:45.901Z,73.20
2023-03-07T18:25:15.897Z,73.10
2023-03-07T18:27:43.348Z,72.50
2023-03-07T18:30:11.875Z,73.10
2023-03-07T18:32:38.771Z,73.20
2023-03-07T18:35:06.745Z,72.70
2023-03-07T18:37:33.784Z,73.20
2023-03-07T18:40:00.614Z,74.60
2023-03-07T18:42:27.462Z,73.20
2023-03-07T18:44:54.528Z,73.20
2023-03-07T18:47:21.484Z,73.30
2023-03-07T18:49:52.144Z,73.30
2023-03-07T18:52:18.976Z,73.30
2023-03-07T18:54:48.018Z,73.60
2023-03-07T18:57:15.294Z,73.40
2023-03-07T18:59:42.045Z,73.30
2023-03-07T19:02:10.278Z,73.40
2023-03-07T19:04:37.086Z,73.10
2023-03-07T19:07:04.035Z,73.10
2023-03-07T19:09:31.600Z,73.00
2023-03-07T19:11:58.432Z,73.00
2023-03-07T19:14:26.369Z,72.90
2023-03-07T19:16:53.206Z,73.10
2023-03-07T19:19:20.723Z,72.70
2023-03-07T19:21:47.567Z,73.00
2023-03-07T19:24:14.488Z,73.00
2023-03-07T19:26:42.720Z,73.10
2023-03-07T19:29:12.065Z,72.30
2023-03-07T19:31:39.188Z,73.20
2023-03-07T19:34:06.414Z,73.20
2023-03-07T19:36:35.150Z,73.20
2023-03-07T19:39:02.264Z,73.20
2023-03-07T19:41:31.753Z,73.20
2023-03-07T19:44:00.516Z,73.30
2023-03-07T19:46:28.168Z,73.30
2023-03-07T19:48:55.234Z,72.60
2023-03-07T19:51:25.264Z,73.20
2023-03-07T19:53:56.789Z,73.40
2023-03-07T19:56:28.630Z,73.40
2023-03-07T19:58:57.447Z,73.40
2023-03-07T20:01:25.734Z,73.40
2023-03-07T20:03:53.749Z,73.30
2023-03-07T20:06:27.760Z,73.30
2023-03-07T20:08:55.154Z,73.40
2023-03-07T20:11:27.465Z,73.60
2023-03-07T20:13:56.316Z,73.20
2023-03-07T20:16:24.563Z,73.20
2023-03-07T20:18:53.195Z,73.40
2023-03-07T20:21:23.072Z,73.50
2023-03-07T20:23:52.826Z,73.50
2023-03-07T20:26:34.464Z,73.50
2023-03-07T20:29:03.849Z,73.70
2023-03-07T20:31:31.041Z,73.60
2023-03-07T20:34:00.102Z,73.70
2023-03-07T20:36:33.741Z,73.70
2023-03-07T20:39:05.425Z,73.90
2023-03-07T20:41:33.662Z,73.90
2023-03-07T20:44:03.756Z,73.10
2023-03-07T20:46:32.221Z,74.00
2023-03-07T20:49:01.121Z,73.90
2023-03-07T20:51:32.043Z,73.90
2023-03-07T20:54:05.238Z,74.00
2023-03-07T20:56:34.670Z,74.00
2023-03-07T20:59:02.142Z,73.60
2023-03-07T21:01:32.311Z,74.00
2023-03-07T21:04:10.966Z,74.10
2023-03-07T21:06:41.902Z,74.20
2023-03-07T21:09:10.863Z,74.20
2023-03-07T21:11:41.974Z,74.10
2023-03-07T21:14:08.810Z,74.00
2023-03-07T21:16:35.697Z,74.10
2023-03-07T21:19:06.085Z,73.40
2023-03-07T21:21:34.811Z,74.30
2023-03-07T21:24:01.689Z,74.20
2023-03-07T21:26:31.697Z,74.20
2023-03-07T21:28:59.525Z,74.70
2023-03-07T21:31:34.145Z,73.90
2023-03-07T21:34:06.229Z,74.10
2023-03-07T21:36:34.068Z,74.00
2023-03-07T21:39:03.666Z,73.90
2023-03-07T21:41:30.384Z,73.90
2023-03-07T21:43:58.167Z,73.70
2023-03-07T21:46:26.196Z,73.70
2023-03-07T21:48:53.429Z,73.60
2023-03-07T21:51:21.172Z,73.60
2023-03-07T21:53:48.043Z,73.60
2023-03-07T21:56:17.225Z,73.30
2023-03-07T21:58:48.827Z,73.70
2023-03-07T22:01:23.228Z,73.50
2023-03-07T22:03:56.265Z,73.60
2023-03-07T22:06:24.739Z,73.70
2023-03-07T22:08:51.472Z,73.50
2023-03-07T22:11:18.253Z,73.60
2023-03-07T22:13:45.022Z,73.60
2023-03-07T22:16:15.916Z,72.90
2023-03-07T22:18:43.002Z,73.40
2023-03-07T22:21:14.597Z,73.30
2023-03-07T22:23:42.207Z,72.90
2023-03-07T22:26:11.685Z,73.50
2023-03-07T22:28:40.979Z,73.50
2023-03-07T22:31:13.349Z,73.50
2023-03-07T22:33:41.821Z,73.30
2023-03-07T22:36:12.465Z,73.30
2023-03-07T22:38:41.639Z,73.60
2023-03-07T22:41:16.352Z,73.30
2023-03-07T22:43:44.147Z,73.20
2023-03-07T22:46:11.958Z,73.20
2023-03-07T22:48:39.520Z,73.00
2023-03-07T22:51:14.022Z,73.00
2023-03-07T22:53:40.896Z,72.80
2023-03-07T22:56:19.368Z,72.70
2023-03-07T22:58:46.872Z,72.60
2023-03-07T23:01:20.903Z,72.50
2023-03-07T23:03:49.351Z,72.60
2023-03-07T23:06:16.774Z,72.60
2023-03-07T23:08:49.629Z,72.50
2023-03-07T23:11:18.268Z,72.60
2023-03-07T23:13:45.638Z,73.30
2023-03-07T23:16:15.966Z,71.90
2023-03-07T23:18:44.924Z,72.50
2023-03-07T23:21:15.308Z,71.80
2023-03-07T23:23:42.057Z,72.30
2023-03-07T23:26:09.016Z,72.20
2023-03-07T23:28:35.834Z,72.20
2023-03-07T23:31:02.679Z,72.20
2023-03-07T23:33:29.460Z,72.20
2023-03-07T23:36:00.801Z,72.10
2023-03-07T23:38:27.575Z,71.40
2023-03-07T23:40:54.366Z,72.00
2023-03-07T23:43:21.149Z,71.80
2023-03-07T23:45:48.097Z,71.80
2023-03-07T23:48:14.872Z,71.80
2023-03-07T23:50:41.620Z,71.80
2023-03-07T23:53:08.361Z,71.90
2023-03-07T23:55:35.069Z,71.90
2023-03-07T23:58:01.813Z,71.40
